sensor_id;sensor_type;location;lat;lon;timestamp;P1;durP1;ratioP1;P2;durP2;ratioP2
34836;SDS011;21053;50.848;4.652;2022-09-14T00:01:21;15.18;;;5.53;;
34836;SDS011;21053;50.848;4.652;2022-09-14T00:03:52;11.88;;;5.82;;
34836;SDS011;21053;50.848;4.652;2022-09-14T00:06:23;10.35;;;5.32;;
34836;SDS011;21053;50.848;4.652;2022-09-14T00:08:50;11.90;;;5.55;;
34836;SDS011;21053;50.848;4.652;2022-09-14T00:11:17;9.30;;;5.43;;
34836;SDS011;21053;50.848;4.652;2022-09-14T00:13:43;11.65;;;5.50;;
34836;SDS011;21053;50.848;4.652;2022-09-14T00:16:14;7.53;;;4.93;;
34836;SDS011;21053;50.848;4.652;2022-09-14T00:18:43;11.85;;;5.10;;
34836;SDS011;21053;50.848;4.652;2022-09-14T00:21:12;10.95;;;5.35;;
34836;SDS011;21053;50.848;4.652;2022-09-14T00:23:39;8.93;;;5.65;;
34836;SDS011;21053;50.848;4.652;2022-09-14T00:26:10;11.90;;;5.28;;
34836;SDS011;21053;50.848;4.652;2022-09-14T00:28:43;9.38;;;5.15;;
34836;SDS011;21053;50.848;4.652;2022-09-14T00:31:11;10.70;;;5.03;;
34836;SDS011;21053;50.848;4.652;2022-09-14T00:33:42;9.35;;;5.03;;
34836;SDS011;21053;50.848;4.652;2022-09-14T00:36:13;14.35;;;5.28;;
34836;SDS011;21053;50.848;4.652;2022-09-14T00:38:41;7.97;;;4.43;;
34836;SDS011;21053;50.848;4.652;2022-09-14T00:41:13;10.93;;;4.93;;
34836;SDS011;21053;50.848;4.652;2022-09-14T00:43:53;8.07;;;4.70;;
34836;SDS011;21053;50.848;4.652;2022-09-14T00:46:22;6.13;;;4.18;;
34836;SDS011;21053;50.848;4.652;2022-09-14T00:48:51;11.90;;;4.18;;
34836;SDS011;21053;50.848;4.652;2022-09-14T00:51:18;14.25;;;4.35;;
34836;SDS011;21053;50.848;4.652;2022-09-14T00:53:48;13.00;;;3.92;;
34836;SDS011;21053;50.848;4.652;2022-09-14T00:56:14;11.55;;;3.53;;
34836;SDS011;21053;50.848;4.652;2022-09-14T00:58:42;7.90;;;3.10;;
34836;SDS011;21053;50.848;4.652;2022-09-14T01:01:09;8.05;;;2.80;;
34836;SDS011;21053;50.848;4.652;2022-09-14T01:03:36;16.20;;;3.40;;
34836;SDS011;21053;50.848;4.652;2022-09-14T01:06:24;7.47;;;3.25;;
34836;SDS011;21053;50.848;4.652;2022-09-14T01:12:02;7.90;;;3.22;;
34836;SDS011;21053;50.848;4.652;2022-09-14T01:28:54;14.77;;;3.33;;
34836;SDS011;21053;50.848;4.652;2022-09-14T01:31:38;4.97;;;2.92;;
34836;SDS011;21053;50.848;4.652;2022-09-14T01:37:39;10.13;;;2.60;;
34836;SDS011;21053;50.848;4.652;2022-09-14T01:39:49;9.15;;;2.85;;
34836;SDS011;21053;50.848;4.652;2022-09-14T01:44:51;10.05;;;2.95;;
34836;SDS011;21053;50.848;4.652;2022-09-14T01:50:21;8.10;;;3.42;;
34836;SDS011;21053;50.848;4.652;2022-09-14T01:52:59;7.43;;;2.95;;
34836;SDS011;21053;50.848;4.652;2022-09-14T01:55:41;9.75;;;2.85;;
34836;SDS011;21053;50.848;4.652;2022-09-14T01:58:16;5.68;;;2.47;;
34836;SDS011;21053;50.848;4.652;2022-09-14T02:00:49;9.23;;;2.65;;
34836;SDS011;21053;50.848;4.652;2022-09-14T02:03:20;8.27;;;2.70;;
34836;SDS011;21053;50.848;4.652;2022-09-14T02:05:55;7.95;;;2.50;;
34836;SDS011;21053;50.848;4.652;2022-09-14T02:08:32;9.93;;;3.22;;
34836;SDS011;21053;50.848;4.652;2022-09-14T02:11:00;5.57;;;2.70;;
34836;SDS011;21053;50.848;4.652;2022-09-14T02:13:28;8.00;;;2.67;;
34836;SDS011;21053;50.848;4.652;2022-09-14T02:15:55;10.63;;;3.00;;
34836;SDS011;21053;50.848;4.652;2022-09-14T02:18:23;6.05;;;2.88;;
34836;SDS011;21053;50.848;4.652;2022-09-14T02:20:50;6.30;;;3.22;;
34836;SDS011;21053;50.848;4.652;2022-09-14T02:25:53;17.42;;;2.70;;
34836;SDS011;21053;50.848;4.652;2022-09-14T02:28:26;11.77;;;2.80;;
34836;SDS011;21053;50.848;4.652;2022-09-14T02:33:39;12.95;;;3.05;;
34836;SDS011;21053;50.848;4.652;2022-09-14T02:39:28;13.35;;;3.33;;
34836;SDS011;21053;50.848;4.652;2022-09-14T02:42:24;10.15;;;2.85;;
34836;SDS011;21053;50.848;4.652;2022-09-14T02:47:48;12.10;;;3.83;;
34836;SDS011;21053;50.848;4.652;2022-09-14T02:53:07;11.73;;;3.70;;
34836;SDS011;21053;50.848;4.652;2022-09-14T02:56:04;10.65;;;3.42;;
34836;SDS011;21053;50.848;4.652;2022-09-14T02:58:35;10.18;;;3.40;;
34836;SDS011;21053;50.848;4.652;2022-09-14T03:01:06;7.22;;;3.15;;
34836;SDS011;21053;50.848;4.652;2022-09-14T03:06:03;14.18;;;4.20;;
34836;SDS011;21053;50.848;4.652;2022-09-14T03:08:30;11.07;;;3.85;;
34836;SDS011;21053;50.848;4.652;2022-09-14T03:11:00;14.68;;;3.53;;
34836;SDS011;21053;50.848;4.652;2022-09-14T03:13:32;9.40;;;3.42;;
34836;SDS011;21053;50.848;4.652;2022-09-14T03:16:07;10.35;;;4.10;;
34836;SDS011;21053;50.848;4.652;2022-09-14T03:18:36;12.75;;;4.15;;
34836;SDS011;21053;50.848;4.652;2022-09-14T03:21:07;12.32;;;3.70;;
34836;SDS011;21053;50.848;4.652;2022-09-14T03:23:43;12.68;;;3.83;;
34836;SDS011;21053;50.848;4.652;2022-09-14T03:28:49;9.35;;;4.00;;
34836;SDS011;21053;50.848;4.652;2022-09-14T03:31:19;9.70;;;3.90;;
34836;SDS011;21053;50.848;4.652;2022-09-14T03:33:55;11.13;;;3.97;;
34836;SDS011;21053;50.848;4.652;2022-09-14T03:36:25;13.27;;;4.05;;
34836;SDS011;21053;50.848;4.652;2022-09-14T03:38:55;12.57;;;3.42;;
34836;SDS011;21053;50.848;4.652;2022-09-14T03:41:23;12.18;;;4.07;;
34836;SDS011;21053;50.848;4.652;2022-09-14T03:43:52;10.55;;;3.88;;
34836;SDS011;21053;50.848;4.652;2022-09-14T03:46:22;10.10;;;3.75;;
34836;SDS011;21053;50.848;4.652;2022-09-14T03:51:21;15.40;;;4.50;;
34836;SDS011;21053;50.848;4.652;2022-09-14T03:53:48;17.98;;;4.57;;
34836;SDS011;21053;50.848;4.652;2022-09-14T03:56:16;13.63;;;4.88;;
34836;SDS011;21053;50.848;4.652;2022-09-14T03:58:46;14.48;;;4.70;;
34836;SDS011;21053;50.848;4.652;2022-09-14T04:03:47;13.32;;;5.45;;
34836;SDS011;21053;50.848;4.652;2022-09-14T04:06:15;12.98;;;5.47;;
34836;SDS011;21053;50.848;4.652;2022-09-14T04:08:43;9.30;;;5.22;;
34836;SDS011;21053;50.848;4.652;2022-09-14T04:13:41;18.42;;;6.47;;
34836;SDS011;21053;50.848;4.652;2022-09-14T04:16:14;13.18;;;6.43;;
34836;SDS011;21053;50.848;4.652;2022-09-14T04:18:40;16.65;;;6.03;;
34836;SDS011;21053;50.848;4.652;2022-09-14T04:21:14;15.23;;;6.00;;
34836;SDS011;21053;50.848;4.652;2022-09-14T04:23:44;17.30;;;6.17;;
34836;SDS011;21053;50.848;4.652;2022-09-14T04:26:10;17.88;;;6.97;;
34836;SDS011;21053;50.848;4.652;2022-09-14T04:28:37;19.20;;;5.85;;
34836;SDS011;21053;50.848;4.652;2022-09-14T04:31:04;14.50;;;7.07;;
34836;SDS011;21053;50.848;4.652;2022-09-14T04:33:33;16.05;;;6.78;;
34836;SDS011;21053;50.848;4.652;2022-09-14T04:36:10;17.17;;;7.35;;
34836;SDS011;21053;50.848;4.652;2022-09-14T04:38:39;17.52;;;7.50;;
34836;SDS011;21053;50.848;4.652;2022-09-14T04:41:09;13.60;;;7.57;;
34836;SDS011;21053;50.848;4.652;2022-09-14T04:43:37;12.75;;;7.10;;
34836;SDS011;21053;50.848;4.652;2022-09-14T04:46:04;14.55;;;7.60;;
34836;SDS011;21053;50.848;4.652;2022-09-14T04:48:32;13.45;;;8.38;;
34836;SDS011;21053;50.848;4.652;2022-09-14T04:51:03;14.40;;;8.23;;
34836;SDS011;21053;50.848;4.652;2022-09-14T04:53:34;13.38;;;8.40;;
34836;SDS011;21053;50.848;4.652;2022-09-14T04:56:03;16.17;;;9.52;;
34836;SDS011;21053;50.848;4.652;2022-09-14T04:58:33;15.48;;;8.73;;
34836;SDS011;21053;50.848;4.652;2022-09-14T05:01:06;12.68;;;9.38;;
34836;SDS011;21053;50.848;4.652;2022-09-14T05:03:35;17.58;;;9.38;;
34836;SDS011;21053;50.848;4.652;2022-09-14T05:06:08;16.42;;;10.25;;
34836;SDS011;21053;50.848;4.652;2022-09-14T05:08:38;21.42;;;9.68;;
34836;SDS011;21053;50.848;4.652;2022-09-14T05:11:04;20.13;;;10.52;;
34836;SDS011;21053;50.848;4.652;2022-09-14T05:13:31;18.33;;;10.80;;
34836;SDS011;21053;50.848;4.652;2022-09-14T05:21:13;17.65;;;11.73;;
34836;SDS011;21053;50.848;4.652;2022-09-14T05:23:43;18.17;;;11.05;;
34836;SDS011;21053;50.848;4.652;2022-09-14T05:26:10;18.40;;;11.73;;
34836;SDS011;21053;50.848;4.652;2022-09-14T05:28:36;17.20;;;10.70;;
34836;SDS011;21053;50.848;4.652;2022-09-14T05:31:04;17.48;;;11.32;;
34836;SDS011;21053;50.848;4.652;2022-09-14T05:33:37;15.68;;;10.68;;
34836;SDS011;21053;50.848;4.652;2022-09-14T05:36:06;18.45;;;11.80;;
34836;SDS011;21053;50.848;4.652;2022-09-14T05:38:36;16.48;;;11.57;;
34836;SDS011;21053;50.848;4.652;2022-09-14T05:41:09;18.48;;;10.43;;
34836;SDS011;21053;50.848;4.652;2022-09-14T05:43:37;20.45;;;10.32;;
34836;SDS011;21053;50.848;4.652;2022-09-14T05:46:05;14.95;;;9.77;;
34836;SDS011;21053;50.848;4.652;2022-09-14T05:48:39;16.05;;;10.15;;
34836;SDS011;21053;50.848;4.652;2022-09-14T05:51:06;16.17;;;9.45;;
34836;SDS011;21053;50.848;4.652;2022-09-14T05:53:35;13.55;;;9.20;;
34836;SDS011;21053;50.848;4.652;2022-09-14T05:56:05;15.45;;;10.02;;
34836;SDS011;21053;50.848;4.652;2022-09-14T05:58:37;12.77;;;9.52;;
34836;SDS011;21053;50.848;4.652;2022-09-14T06:01:08;16.05;;;10.73;;
34836;SDS011;21053;50.848;4.652;2022-09-14T06:03:42;17.15;;;9.63;;
34836;SDS011;21053;50.848;4.652;2022-09-14T06:06:09;13.38;;;10.10;;
34836;SDS011;21053;50.848;4.652;2022-09-14T06:08:37;15.70;;;9.23;;
34836;SDS011;21053;50.848;4.652;2022-09-14T06:11:11;17.05;;;9.30;;
34836;SDS011;21053;50.848;4.652;2022-09-14T06:13:41;14.13;;;8.90;;
34836;SDS011;21053;50.848;4.652;2022-09-14T06:16:09;12.82;;;9.05;;
34836;SDS011;21053;50.848;4.652;2022-09-14T06:18:39;13.77;;;9.82;;
34836;SDS011;21053;50.848;4.652;2022-09-14T06:21:06;15.43;;;10.38;;
34836;SDS011;21053;50.848;4.652;2022-09-14T06:23:34;12.98;;;9.82;;
34836;SDS011;21053;50.848;4.652;2022-09-14T06:26:02;15.07;;;10.18;;
34836;SDS011;21053;50.848;4.652;2022-09-14T06:28:29;15.82;;;9.48;;
34836;SDS011;21053;50.848;4.652;2022-09-14T06:30:56;18.90;;;10.90;;
34836;SDS011;21053;50.848;4.652;2022-09-14T06:33:22;18.33;;;10.07;;
34836;SDS011;21053;50.848;4.652;2022-09-14T06:35:58;14.38;;;10.32;;
34836;SDS011;21053;50.848;4.652;2022-09-14T06:38:26;20.23;;;9.95;;
34836;SDS011;21053;50.848;4.652;2022-09-14T06:40:58;16.23;;;10.07;;
34836;SDS011;21053;50.848;4.652;2022-09-14T06:43:26;17.23;;;10.20;;
34836;SDS011;21053;50.848;4.652;2022-09-14T06:46:04;16.70;;;11.13;;
34836;SDS011;21053;50.848;4.652;2022-09-14T06:48:35;18.92;;;11.50;;
34836;SDS011;21053;50.848;4.652;2022-09-14T06:51:20;16.10;;;10.52;;
34836;SDS011;21053;50.848;4.652;2022-09-14T06:53:46;14.77;;;10.13;;
34836;SDS011;21053;50.848;4.652;2022-09-14T06:56:14;22.15;;;11.52;;
34836;SDS011;21053;50.848;4.652;2022-09-14T06:58:46;16.08;;;10.63;;
34836;SDS011;21053;50.848;4.652;2022-09-14T07:03:46;20.38;;;11.18;;
34836;SDS011;21053;50.848;4.652;2022-09-14T07:06:13;16.63;;;11.75;;
34836;SDS011;21053;50.848;4.652;2022-09-14T07:08:42;19.27;;;12.90;;
34836;SDS011;21053;50.848;4.652;2022-09-14T07:11:10;20.25;;;11.55;;
34836;SDS011;21053;50.848;4.652;2022-09-14T07:13:40;19.17;;;12.48;;
34836;SDS011;21053;50.848;4.652;2022-09-14T07:16:08;19.88;;;12.18;;
34836;SDS011;21053;50.848;4.652;2022-09-14T07:18:36;21.48;;;11.98;;
34836;SDS011;21053;50.848;4.652;2022-09-14T07:21:03;21.77;;;12.25;;
34836;SDS011;21053;50.848;4.652;2022-09-14T07:23:39;21.80;;;12.43;;
34836;SDS011;21053;50.848;4.652;2022-09-14T07:26:12;24.90;;;12.23;;
34836;SDS011;21053;50.848;4.652;2022-09-14T07:28:48;18.08;;;12.18;;
34836;SDS011;21053;50.848;4.652;2022-09-14T07:31:18;22.23;;;11.13;;
34836;SDS011;21053;50.848;4.652;2022-09-14T07:33:47;19.75;;;12.70;;
34836;SDS011;21053;50.848;4.652;2022-09-14T07:36:17;22.38;;;12.40;;
34836;SDS011;21053;50.848;4.652;2022-09-14T07:38:42;21.27;;;11.70;;
34836;SDS011;21053;50.848;4.652;2022-09-14T07:41:09;17.88;;;11.82;;
34836;SDS011;21053;50.848;4.652;2022-09-14T07:43:37;20.92;;;11.90;;
34836;SDS011;21053;50.848;4.652;2022-09-14T07:46:04;19.75;;;11.63;;
34836;SDS011;21053;50.848;4.652;2022-09-14T07:48:32;20.85;;;11.18;;
34836;SDS011;21053;50.848;4.652;2022-09-14T07:51:00;22.50;;;12.93;;
34836;SDS011;21053;50.848;4.652;2022-09-14T07:53:28;18.77;;;11.60;;
34836;SDS011;21053;50.848;4.652;2022-09-14T07:55:59;20.00;;;11.45;;
34836;SDS011;21053;50.848;4.652;2022-09-14T07:58:26;21.85;;;11.98;;
34836;SDS011;21053;50.848;4.652;2022-09-14T08:00:57;20.35;;;12.27;;
34836;SDS011;21053;50.848;4.652;2022-09-14T08:06:04;18.77;;;11.75;;
34836;SDS011;21053;50.848;4.652;2022-09-14T08:08:33;24.73;;;11.98;;
34836;SDS011;21053;50.848;4.652;2022-09-14T08:11:20;27.20;;;12.23;;
34836;SDS011;21053;50.848;4.652;2022-09-14T08:13:49;17.70;;;11.50;;
34836;SDS011;21053;50.848;4.652;2022-09-14T08:16:23;22.25;;;12.63;;
34836;SDS011;21053;50.848;4.652;2022-09-14T08:18:57;17.95;;;11.48;;
34836;SDS011;21053;50.848;4.652;2022-09-14T08:21:24;18.30;;;10.75;;
34836;SDS011;21053;50.848;4.652;2022-09-14T08:26:24;16.92;;;11.13;;
34836;SDS011;21053;50.848;4.652;2022-09-14T08:28:53;20.52;;;11.10;;
34836;SDS011;21053;50.848;4.652;2022-09-14T08:31:22;17.48;;;11.10;;
34836;SDS011;21053;50.848;4.652;2022-09-14T08:34:01;16.95;;;11.45;;
34836;SDS011;21053;50.848;4.652;2022-09-14T08:36:34;18.63;;;11.13;;
34836;SDS011;21053;50.848;4.652;2022-09-14T08:39:04;18.20;;;11.23;;
34836;SDS011;21053;50.848;4.652;2022-09-14T08:41:57;15.38;;;10.50;;
34836;SDS011;21053;50.848;4.652;2022-09-14T08:44:27;15.80;;;10.85;;
34836;SDS011;21053;50.848;4.652;2022-09-14T08:47:02;15.90;;;10.35;;
34836;SDS011;21053;50.848;4.652;2022-09-14T08:52:02;17.42;;;11.38;;
34836;SDS011;21053;50.848;4.652;2022-09-14T08:54:30;19.90;;;10.68;;
34836;SDS011;21053;50.848;4.652;2022-09-14T08:57:09;17.67;;;10.35;;
34836;SDS011;21053;50.848;4.652;2022-09-14T09:02:42;15.88;;;10.32;;
34836;SDS011;21053;50.848;4.652;2022-09-14T09:08:23;16.52;;;9.90;;
34836;SDS011;21053;50.848;4.652;2022-09-14T09:11:10;13.85;;;9.18;;
34836;SDS011;21053;50.848;4.652;2022-09-14T09:13:41;14.95;;;9.27;;
34836;SDS011;21053;50.848;4.652;2022-09-14T09:16:10;13.65;;;8.80;;
34836;SDS011;21053;50.848;4.652;2022-09-14T09:18:41;14.75;;;8.80;;
34836;SDS011;21053;50.848;4.652;2022-09-14T09:21:22;14.63;;;8.45;;
34836;SDS011;21053;50.848;4.652;2022-09-14T09:24:04;15.82;;;9.15;;
34836;SDS011;21053;50.848;4.652;2022-09-14T09:26:41;11.93;;;8.63;;
34836;SDS011;21053;50.848;4.652;2022-09-14T09:29:08;14.35;;;8.85;;
34836;SDS011;21053;50.848;4.652;2022-09-14T09:31:37;9.23;;;7.18;;
34836;SDS011;21053;50.848;4.652;2022-09-14T09:34:13;9.88;;;7.45;;
34836;SDS011;21053;50.848;4.652;2022-09-14T09:36:44;12.68;;;7.65;;
34836;SDS011;21053;50.848;4.652;2022-09-14T09:39:12;10.98;;;8.23;;
34836;SDS011;21053;50.848;4.652;2022-09-14T09:41:50;8.80;;;6.80;;
34836;SDS011;21053;50.848;4.652;2022-09-14T09:44:22;10.00;;;7.30;;
34836;SDS011;21053;50.848;4.652;2022-09-14T09:46:55;10.75;;;7.32;;
34836;SDS011;21053;50.848;4.652;2022-09-14T09:52:07;9.30;;;6.88;;
34836;SDS011;21053;50.848;4.652;2022-09-14T09:54:39;8.98;;;6.38;;
34836;SDS011;21053;50.848;4.652;2022-09-14T09:57:18;9.82;;;7.35;;
34836;SDS011;21053;50.848;4.652;2022-09-14T10:05:19;10.88;;;7.13;;
34836;SDS011;21053;50.848;4.652;2022-09-14T10:08:03;8.95;;;6.78;;
34836;SDS011;21053;50.848;4.652;2022-09-14T10:13:03;9.13;;;6.90;;
34836;SDS011;21053;50.848;4.652;2022-09-14T10:15:33;9.65;;;6.25;;
34836;SDS011;21053;50.848;4.652;2022-09-14T10:18:15;9.25;;;6.97;;
34836;SDS011;21053;50.848;4.652;2022-09-14T10:25:45;11.75;;;8.10;;
34836;SDS011;21053;50.848;4.652;2022-09-14T10:28:28;9.40;;;6.65;;
34836;SDS011;21053;50.848;4.652;2022-09-14T10:41:36;10.07;;;7.47;;
34836;SDS011;21053;50.848;4.652;2022-09-14T10:44:27;11.25;;;6.63;;
34836;SDS011;21053;50.848;4.652;2022-09-14T10:49:35;9.68;;;6.18;;
34836;SDS011;21053;50.848;4.652;2022-09-14T10:52:25;12.63;;;6.80;;
34836;SDS011;21053;50.848;4.652;2022-09-14T10:55:02;10.18;;;6.45;;
34836;SDS011;21053;50.848;4.652;2022-09-14T10:57:53;8.30;;;6.28;;
34836;SDS011;21053;50.848;4.652;2022-09-14T11:00:34;8.57;;;6.55;;
34836;SDS011;21053;50.848;4.652;2022-09-14T11:03:26;9.57;;;6.53;;
34836;SDS011;21053;50.848;4.652;2022-09-14T11:06:22;9.23;;;6.57;;
34836;SDS011;21053;50.848;4.652;2022-09-14T11:12:41;10.63;;;7.88;;
34836;SDS011;21053;50.848;4.652;2022-09-14T11:28:50;17.45;;;9.18;;
34836;SDS011;21053;50.848;4.652;2022-09-14T11:31:42;12.00;;;9.07;;
34836;SDS011;21053;50.848;4.652;2022-09-14T11:36:44;10.90;;;8.80;;
34836;SDS011;21053;50.848;4.652;2022-09-14T11:39:20;10.43;;;8.20;;
34836;SDS011;21053;50.848;4.652;2022-09-14T11:42:06;13.90;;;8.95;;
34836;SDS011;21053;50.848;4.652;2022-09-14T11:44:42;13.05;;;9.20;;
34836;SDS011;21053;50.848;4.652;2022-09-14T11:47:21;10.88;;;9.00;;
34836;SDS011;21053;50.848;4.652;2022-09-14T11:50:02;19.70;;;9.43;;
34836;SDS011;21053;50.848;4.652;2022-09-14T11:55:22;14.30;;;9.73;;
34836;SDS011;21053;50.848;4.652;2022-09-14T11:58:22;12.40;;;8.35;;
34836;SDS011;21053;50.848;4.652;2022-09-14T12:06:41;15.02;;;9.90;;
34836;SDS011;21053;50.848;4.652;2022-09-14T12:11:52;16.88;;;9.98;;
34836;SDS011;21053;50.848;4.652;2022-09-14T12:14:29;12.32;;;9.75;;
34836;SDS011;21053;50.848;4.652;2022-09-14T12:25:37;17.08;;;10.38;;
34836;SDS011;21053;50.848;4.652;2022-09-14T12:31:29;17.53;;;10.93;;
34836;SDS011;21053;50.848;4.652;2022-09-14T12:34:17;20.25;;;11.00;;
34836;SDS011;21053;50.848;4.652;2022-09-14T12:39:25;14.73;;;10.80;;
34836;SDS011;21053;50.848;4.652;2022-09-14T12:44:33;15.77;;;10.65;;
34836;SDS011;21053;50.848;4.652;2022-09-14T12:58:04;18.95;;;11.70;;
34836;SDS011;21053;50.848;4.652;2022-09-14T13:03:53;22.08;;;12.43;;
34836;SDS011;21053;50.848;4.652;2022-09-14T13:06:21;21.17;;;12.05;;
34836;SDS011;21053;50.848;4.652;2022-09-14T13:08:54;19.23;;;11.57;;
34836;SDS011;21053;50.848;4.652;2022-09-14T13:11:26;22.30;;;12.15;;
34836;SDS011;21053;50.848;4.652;2022-09-14T13:14:00;21.98;;;12.50;;
34836;SDS011;21053;50.848;4.652;2022-09-14T13:16:34;24.58;;;13.27;;
34836;SDS011;21053;50.848;4.652;2022-09-14T13:19:04;18.58;;;12.27;;
34836;SDS011;21053;50.848;4.652;2022-09-14T13:21:44;19.98;;;12.45;;
34836;SDS011;21053;50.848;4.652;2022-09-14T13:26:51;18.52;;;12.38;;
34836;SDS011;21053;50.848;4.652;2022-09-14T13:32:30;20.92;;;13.10;;
34836;SDS011;21053;50.848;4.652;2022-09-14T13:37:41;22.48;;;13.63;;
34836;SDS011;21053;50.848;4.652;2022-09-14T13:40:13;25.38;;;14.07;;
34836;SDS011;21053;50.848;4.652;2022-09-14T13:42:39;22.95;;;13.23;;
34836;SDS011;21053;50.848;4.652;2022-09-14T13:45:08;27.13;;;13.65;;
34836;SDS011;21053;50.848;4.652;2022-09-14T13:47:40;23.90;;;13.15;;
34836;SDS011;21053;50.848;4.652;2022-09-14T13:50:07;25.08;;;14.15;;
34836;SDS011;21053;50.848;4.652;2022-09-14T13:52:40;22.05;;;13.32;;
34836;SDS011;21053;50.848;4.652;2022-09-14T13:55:20;20.27;;;13.30;;
34836;SDS011;21053;50.848;4.652;2022-09-14T14:03:49;20.15;;;12.57;;
34836;SDS011;21053;50.848;4.652;2022-09-14T14:06:25;29.60;;;12.25;;
34836;SDS011;21053;50.848;4.652;2022-09-14T14:08:58;19.70;;;12.00;;
34836;SDS011;21053;50.848;4.652;2022-09-14T14:11:30;18.58;;;12.07;;
34836;SDS011;21053;50.848;4.652;2022-09-14T14:14:15;16.75;;;11.07;;
34836;SDS011;21053;50.848;4.652;2022-09-14T14:19:39;18.10;;;11.05;;
34836;SDS011;21053;50.848;4.652;2022-09-14T14:24:42;23.20;;;12.10;;
34836;SDS011;21053;50.848;4.652;2022-09-14T14:27:26;18.73;;;11.07;;
34836;SDS011;21053;50.848;4.652;2022-09-14T14:32:23;19.25;;;9.60;;
34836;SDS011;21053;50.848;4.652;2022-09-14T14:34:49;12.75;;;8.30;;
34836;SDS011;21053;50.848;4.652;2022-09-14T14:37:17;15.63;;;8.20;;
34836;SDS011;21053;50.848;4.652;2022-09-14T14:39:46;13.57;;;8.32;;
34836;SDS011;21053;50.848;4.652;2022-09-14T14:42:15;11.88;;;8.40;;
34836;SDS011;21053;50.848;4.652;2022-09-14T14:44:42;14.93;;;8.13;;
34836;SDS011;21053;50.848;4.652;2022-09-14T14:47:13;13.50;;;8.32;;
34836;SDS011;21053;50.848;4.652;2022-09-14T14:49:40;16.10;;;7.45;;
34836;SDS011;21053;50.848;4.652;2022-09-14T14:52:12;12.98;;;7.60;;
34836;SDS011;21053;50.848;4.652;2022-09-14T14:54:38;13.75;;;7.82;;
34836;SDS011;21053;50.848;4.652;2022-09-14T14:57:07;12.55;;;6.95;;
34836;SDS011;21053;50.848;4.652;2022-09-14T14:59:35;11.07;;;6.88;;
34836;SDS011;21053;50.848;4.652;2022-09-14T15:02:01;11.38;;;6.80;;
34836;SDS011;21053;50.848;4.652;2022-09-14T15:04:31;15.18;;;6.20;;
34836;SDS011;21053;50.848;4.652;2022-09-14T15:06:57;10.23;;;6.95;;
34836;SDS011;21053;50.848;4.652;2022-09-14T15:09:27;16.30;;;6.88;;
34836;SDS011;21053;50.848;4.652;2022-09-14T15:11:58;12.32;;;6.47;;
34836;SDS011;21053;50.848;4.652;2022-09-14T15:14:25;15.48;;;6.90;;
34836;SDS011;21053;50.848;4.652;2022-09-14T15:16:54;12.07;;;6.68;;
34836;SDS011;21053;50.848;4.652;2022-09-14T15:19:24;12.90;;;6.43;;
34836;SDS011;21053;50.848;4.652;2022-09-14T15:21:50;13.48;;;7.10;;
34836;SDS011;21053;50.848;4.652;2022-09-14T15:24:16;17.17;;;7.95;;
34836;SDS011;21053;50.848;4.652;2022-09-14T15:29:12;14.05;;;6.60;;
34836;SDS011;21053;50.848;4.652;2022-09-14T15:31:40;12.43;;;7.28;;
34836;SDS011;21053;50.848;4.652;2022-09-14T15:34:07;10.70;;;7.05;;
34836;SDS011;21053;50.848;4.652;2022-09-14T15:36:37;11.40;;;7.20;;
34836;SDS011;21053;50.848;4.652;2022-09-14T15:39:13;11.30;;;7.88;;
34836;SDS011;21053;50.848;4.652;2022-09-14T15:41:40;14.18;;;8.18;;
34836;SDS011;21053;50.848;4.652;2022-09-14T15:44:07;12.77;;;7.93;;
34836;SDS011;21053;50.848;4.652;2022-09-14T15:46:37;15.25;;;9.48;;
34836;SDS011;21053;50.848;4.652;2022-09-14T15:49:05;16.40;;;7.68;;
34836;SDS011;21053;50.848;4.652;2022-09-14T15:51:34;13.15;;;8.05;;
34836;SDS011;21053;50.848;4.652;2022-09-14T15:54:00;12.25;;;8.57;;
34836;SDS011;21053;50.848;4.652;2022-09-14T15:56:26;14.23;;;8.75;;
34836;SDS011;21053;50.848;4.652;2022-09-14T15:58:51;11.88;;;8.00;;
34836;SDS011;21053;50.848;4.652;2022-09-14T16:01:19;12.10;;;7.60;;
34836;SDS011;21053;50.848;4.652;2022-09-14T16:03:45;12.82;;;8.73;;
34836;SDS011;21053;50.848;4.652;2022-09-14T16:06:12;15.75;;;8.27;;
34836;SDS011;21053;50.848;4.652;2022-09-14T16:08:39;15.30;;;8.38;;
34836;SDS011;21053;50.848;4.652;2022-09-14T16:11:06;16.00;;;8.63;;
34836;SDS011;21053;50.848;4.652;2022-09-14T16:13:33;13.70;;;8.25;;
34836;SDS011;21053;50.848;4.652;2022-09-14T16:16:03;12.98;;;8.50;;
34836;SDS011;21053;50.848;4.652;2022-09-14T16:18:32;15.25;;;9.23;;
34836;SDS011;21053;50.848;4.652;2022-09-14T16:21:07;15.73;;;9.32;;
34836;SDS011;21053;50.848;4.652;2022-09-14T16:23:37;15.13;;;10.20;;
34836;SDS011;21053;50.848;4.652;2022-09-14T16:26:07;18.88;;;10.30;;
34836;SDS011;21053;50.848;4.652;2022-09-14T16:28:35;22.05;;;10.95;;
34836;SDS011;21053;50.848;4.652;2022-09-14T16:31:03;22.05;;;10.75;;
34836;SDS011;21053;50.848;4.652;2022-09-14T16:33:41;17.55;;;9.90;;
34836;SDS011;21053;50.848;4.652;2022-09-14T16:36:12;20.42;;;11.90;;
34836;SDS011;21053;50.848;4.652;2022-09-14T16:38:41;17.88;;;11.35;;
34836;SDS011;21053;50.848;4.652;2022-09-14T16:41:09;24.15;;;11.73;;
34836;SDS011;21053;50.848;4.652;2022-09-14T16:43:36;21.80;;;11.50;;
34836;SDS011;21053;50.848;4.652;2022-09-14T16:46:15;27.42;;;12.40;;
34836;SDS011;21053;50.848;4.652;2022-09-14T16:48:44;23.17;;;13.30;;
34836;SDS011;21053;50.848;4.652;2022-09-14T16:51:14;22.20;;;12.70;;
34836;SDS011;21053;50.848;4.652;2022-09-14T16:53:42;22.48;;;12.32;;
34836;SDS011;21053;50.848;4.652;2022-09-14T16:56:12;20.45;;;12.13;;
34836;SDS011;21053;50.848;4.652;2022-09-14T16:58:43;21.52;;;12.77;;
34836;SDS011;21053;50.848;4.652;2022-09-14T17:01:16;21.00;;;11.77;;
34836;SDS011;21053;50.848;4.652;2022-09-14T17:03:46;20.38;;;11.32;;
34836;SDS011;21053;50.848;4.652;2022-09-14T17:06:15;18.33;;;11.88;;
34836;SDS011;21053;50.848;4.652;2022-09-14T17:08:45;20.67;;;11.75;;
34836;SDS011;21053;50.848;4.652;2022-09-14T17:11:14;33.90;;;13.55;;
34836;SDS011;21053;50.848;4.652;2022-09-14T17:13:43;26.65;;;13.85;;
34836;SDS011;21053;50.848;4.652;2022-09-14T17:16:18;19.83;;;11.85;;
34836;SDS011;21053;50.848;4.652;2022-09-14T17:18:45;26.88;;;13.38;;
34836;SDS011;21053;50.848;4.652;2022-09-14T17:21:14;27.90;;;14.68;;
34836;SDS011;21053;50.848;4.652;2022-09-14T17:23:44;23.70;;;13.13;;
34836;SDS011;21053;50.848;4.652;2022-09-14T17:26:12;25.05;;;14.93;;
34836;SDS011;21053;50.848;4.652;2022-09-14T17:28:39;31.60;;;15.27;;
34836;SDS011;21053;50.848;4.652;2022-09-14T17:31:10;27.25;;;15.40;;
34836;SDS011;21053;50.848;4.652;2022-09-14T17:33:40;27.42;;;14.63;;
34836;SDS011;21053;50.848;4.652;2022-09-14T17:36:06;22.02;;;13.73;;
34836;SDS011;21053;50.848;4.652;2022-09-14T17:38:34;25.83;;;14.57;;
34836;SDS011;21053;50.848;4.652;2022-09-14T17:41:05;28.80;;;14.68;;
34836;SDS011;21053;50.848;4.652;2022-09-14T17:43:34;28.50;;;14.30;;
34836;SDS011;21053;50.848;4.652;2022-09-14T17:46:02;26.17;;;12.50;;
34836;SDS011;21053;50.848;4.652;2022-09-14T17:48:33;20.73;;;11.77;;
34836;SDS011;21053;50.848;4.652;2022-09-14T17:51:06;19.13;;;12.75;;
34836;SDS011;21053;50.848;4.652;2022-09-14T17:53:40;18.20;;;11.88;;
34836;SDS011;21053;50.848;4.652;2022-09-14T17:56:11;19.02;;;12.38;;
34836;SDS011;21053;50.848;4.652;2022-09-14T17:58:40;20.80;;;11.07;;
34836;SDS011;21053;50.848;4.652;2022-09-14T18:01:09;18.73;;;12.07;;
34836;SDS011;21053;50.848;4.652;2022-09-14T18:03:38;17.13;;;10.70;;
34836;SDS011;21053;50.848;4.652;2022-09-14T18:06:07;16.13;;;10.77;;